createdAt,value
2023-12-30T00:02:26.860Z,4.65
2023-12-30T00:04:54.043Z,5.45
2023-12-30T00:07:21.209Z,10.32
2023-12-30T00:09:48.367Z,5.32
2023-12-30T00:12:15.812Z,8.18
2023-12-30T00:14:43.042Z,4.85
2023-12-30T00:17:10.271Z,4.53
2023-12-30T00:19:37.823Z,6.63
2023-12-30T00:22:05.121Z,5.97
2023-12-30T00:24:32.916Z,3.53
2023-12-30T00:26:59.992Z,1.83
2023-12-30T00:29:28.218Z,5.05
2023-12-30T00:31:55.381Z,3.65
2023-12-30T00:34:22.664Z,13.15
2023-12-30T00:36:49.867Z,8.05
2023-12-30T00:39:17.374Z,2.67
2023-12-30T00:41:44.507Z,9.13
2023-12-30T00:44:12.069Z,5.85
2023-12-30T00:46:39.469Z,17.35
2023-12-30T00:49:09.857Z,2.30
2023-12-30T00:51:37.033Z,5.03
2023-12-30T00:54:04.525Z,6.90
2023-12-30T00:56:31.652Z,8.88
2023-12-30T00:58:59.206Z,5.05
2023-12-30T01:01:26.401Z,5.38
2023-12-30T01:03:54.071Z,7.35
2023-12-30T01:06:21.208Z,3.90
2023-12-30T01:08:48.304Z,9.48
2023-12-30T01:11:15.731Z,3.75
2023-12-30T01:13:42.901Z,5.93
2023-12-30T01:16:10.056Z,13.77
2023-12-30T01:18:37.293Z,4.78
2023-12-30T01:21:04.974Z,10.30
2023-12-30T01:23:32.402Z,5.45
2023-12-30T01:25:59.820Z,4.25
2023-12-30T01:28:27.079Z,8.93
2023-12-30T01:30:54.792Z,3.30
2023-12-30T01:33:22.051Z,4.47
2023-12-30T01:35:49.183Z,5.00
2023-12-30T01:38:16.292Z,7.15
2023-12-30T01:40:43.631Z,9.80
2023-12-30T01:43:31.293Z,9.27
2023-12-30T01:46:10.578Z,4.55
2023-12-30T01:48:38.674Z,2.53
2023-12-30T01:51:23.089Z,13.82
2023-12-30T01:53:53.256Z,5.65
2023-12-30T01:56:21.126Z,9.40
2023-12-30T01:58:51.066Z,3.90
2023-12-30T02:01:19.832Z,4.45
2023-12-30T02:03:47.737Z,4.03
2023-12-30T02:06:14.889Z,4.32
2023-12-30T02:08:42.047Z,2.95
2023-12-30T02:11:09.224Z,5.32
2023-12-30T02:13:36.478Z,3.45
2023-12-30T02:16:03.701Z,4.47
2023-12-30T02:18:30.838Z,6.50
2023-12-30T02:20:58.465Z,5.13
2023-12-30T02:23:25.593Z,3.15
2023-12-30T02:25:52.716Z,4.65
2023-12-30T02:28:19.998Z,3.30
2023-12-30T02:30:47.182Z,8.45
2023-12-30T02:33:14.466Z,2.42
2023-12-30T02:35:45.054Z,7.43
2023-12-30T02:38:12.365Z,4.97
2023-12-30T02:40:40.221Z,10.85
2023-12-30T02:43:07.414Z,2.60
2023-12-30T02:45:34.508Z,4.75
2023-12-30T02:48:01.727Z,5.95
2023-12-30T02:50:29.215Z,4.22
2023-12-30T02:52:56.540Z,8.70
2023-12-30T02:55:23.882Z,3.33
2023-12-30T02:57:51.102Z,3.35
2023-12-30T03:00:19.153Z,3.50
2023-12-30T03:02:47.249Z,9.07
2023-12-30T03:05:14.872Z,5.03
2023-12-30T03:07:42.224Z,1.95
2023-12-30T03:10:10.151Z,3.97
2023-12-30T03:12:37.389Z,6.22
2023-12-30T03:15:04.767Z,1.88
2023-12-30T03:17:31.946Z,4.20
2023-12-30T03:19:59.536Z,3.10
2023-12-30T03:22:27.554Z,4.47
2023-12-30T03:24:55.247Z,2.10
2023-12-30T03:27:22.547Z,5.30
2023-12-30T03:29:49.678Z,2.22
2023-12-30T03:32:16.848Z,4.25
2023-12-30T03:34:44.033Z,5.07
2023-12-30T03:37:11.292Z,5.35
2023-12-30T03:39:38.453Z,3.45
2023-12-30T03:42:05.734Z,2.88
2023-12-30T03:44:33.779Z,5.35
2023-12-30T03:47:00.953Z,7.90
2023-12-30T03:49:28.297Z,5.75
2023-12-30T03:51:55.510Z,5.85
2023-12-30T03:54:22.656Z,4.20
2023-12-30T03:56:49.801Z,9.15
2023-12-30T03:59:17.034Z,5.32
2023-12-30T04:01:45.014Z,5.55
2023-12-30T04:04:12.396Z,7.93
2023-12-30T04:06:39.551Z,6.57
2023-12-30T04:09:06.664Z,2.92
2023-12-30T04:11:33.885Z,4.10
2023-12-30T04:14:01.149Z,6.88
2023-12-30T04:16:28.266Z,4.35
2023-12-30T04:18:55.714Z,2.60
2023-12-30T04:21:22.955Z,13.07
2023-12-30T04:23:50.086Z,7.88
2023-12-30T04:26:17.235Z,4.75
2023-12-30T04:28:46.335Z,2.30
2023-12-30T04:31:13.671Z,6.60
2023-12-30T04:33:40.838Z,3.45
2023-12-30T04:36:08.442Z,8.52
2023-12-30T04:38:35.696Z,7.93
2023-12-30T04:41:02.837Z,4.60
2023-12-30T04:43:29.998Z,9.90
2023-12-30T04:45:57.251Z,8.98
2023-12-30T04:48:24.707Z,7.43
2023-12-30T04:50:51.819Z,3.10
2023-12-30T04:53:18.968Z,16.45
2023-12-30T04:55:46.062Z,6.25
2023-12-30T04:58:13.789Z,3.72
2023-12-30T05:00:40.948Z,5.28
2023-12-30T05:03:08.290Z,9.95
2023-12-30T05:05:35.735Z,3.33
2023-12-30T05:08:05.485Z,5.25
2023-12-30T05:10:34.536Z,10.85
2023-12-30T05:13:03.028Z,4.20
2023-12-30T05:15:30.355Z,8.05
2023-12-30T05:17:59.931Z,8.50
2023-12-30T05:20:27.461Z,7.32
2023-12-30T05:22:54.593Z,10.95
2023-12-30T05:25:21.835Z,10.00
2023-12-30T05:27:48.960Z,9.88
2023-12-30T05:30:16.450Z,7.50
2023-12-30T05:32:43.754Z,9.88
2023-12-30T05:35:10.972Z,7.75
2023-12-30T05:37:38.227Z,4.47
2023-12-30T05:40:09.635Z,6.65
2023-12-30T05:42:37.094Z,6.30
2023-12-30T05:45:04.840Z,5.70
2023-12-30T05:47:32.071Z,5.63
2023-12-30T05:49:59.264Z,8.60
2023-12-30T05:52:26.444Z,9.25
2023-12-30T05:54:53.653Z,10.30
2023-12-30T05:57:20.889Z,5.80
2023-12-30T05:59:48.503Z,7.18
2023-12-30T06:02:15.626Z,9.75
2023-12-30T06:04:43.285Z,7.55
2023-12-30T06:07:10.795Z,6.65
2023-12-30T06:09:38.016Z,8.77
2023-12-30T06:12:05.829Z,7.68
2023-12-30T06:14:32.932Z,17.02
2023-12-30T06:17:00.050Z,8.15
2023-12-30T06:19:27.331Z,12.13
2023-12-30T06:21:54.963Z,11.32
2023-12-30T06:24:23.695Z,8.20
2023-12-30T06:26:52.981Z,10.82
2023-12-30T06:29:22.861Z,9.23
2023-12-30T06:31:51.049Z,9.80
2023-12-30T06:34:18.301Z,11.55
2023-12-30T06:36:46.839Z,9.50
2023-12-30T06:39:18.571Z,6.10
2023-12-30T06:41:45.772Z,11.18
2023-12-30T06:44:12.950Z,7.53
2023-12-30T06:46:41.334Z,6.00
2023-12-30T06:49:08.651Z,10.48
2023-12-30T06:51:36.337Z,8.15
2023-12-30T06:54:03.803Z,4.38
2023-12-30T06:56:31.044Z,4.80
2023-12-30T06:58:58.325Z,8.18
2023-12-30T07:01:26.626Z,5.00
2023-12-30T07:03:54.192Z,8.85
2023-12-30T07:06:21.723Z,6.45
2023-12-30T07:08:48.896Z,9.93
2023-12-30T07:11:16.231Z,9.30
2023-12-30T07:13:43.487Z,16.20
2023-12-30T07:16:10.668Z,9.75
2023-12-30T07:18:37.831Z,15.35
2023-12-30T07:21:05.031Z,22.40
2023-12-30T07:23:32.111Z,42.58
2023-12-30T07:25:59.560Z,30.88
2023-12-30T07:28:26.771Z,36.28
2023-12-30T07:30:54.252Z,41.92
2023-12-30T07:33:21.604Z,28.27
2023-12-30T07:35:49.035Z,32.97
2023-12-30T07:38:16.280Z,22.27
2023-12-30T07:40:43.398Z,23.35
2023-12-30T07:43:11.130Z,17.25
2023-12-30T07:45:38.279Z,17.33
2023-12-30T07:48:06.104Z,21.67
2023-12-30T07:50:33.307Z,12.68
2023-12-30T07:53:00.675Z,11.95
2023-12-30T07:55:28.370Z,16.90
2023-12-30T07:57:55.479Z,10.23
2023-12-30T08:00:22.721Z,9.13
2023-12-30T08:02:50.016Z,11.68
2023-12-30T08:05:19.156Z,11.55
2023-12-30T08:07:46.446Z,10.43
2023-12-30T08:10:14.297Z,8.82
2023-12-30T08:12:41.470Z,11.13
2023-12-30T08:15:10.476Z,17.25
2023-12-30T08:17:38.170Z,23.33
2023-12-30T08:20:06.812Z,14.40
2023-12-30T08:22:34.006Z,22.65
2023-12-30T08:25:01.219Z,17.17
2023-12-30T08:27:28.993Z,7.88
2023-12-30T08:29:56.194Z,8.93
2023-12-30T08:32:23.341Z,9.90
2023-12-30T08:34:50.720Z,10.27
2023-12-30T08:37:18.747Z,13.93
2023-12-30T08:39:47.305Z,12.40
2023-12-30T08:42:14.481Z,9.60
2023-12-30T08:44:44.971Z,13.15
2023-12-30T08:47:13.243Z,12.02
2023-12-30T08:49:40.754Z,16.20
2023-12-30T08:52:08.114Z,13.52
2023-12-30T08:54:40.243Z,7.30
2023-12-30T08:57:07.563Z,12.15
2023-12-30T08:59:35.014Z,8.70
2023-12-30T09:02:02.742Z,7.85
2023-12-30T09:04:30.195Z,18.55
2023-12-30T09:06:58.148Z,8.32
2023-12-30T09:09:25.288Z,11.50
2023-12-30T09:11:52.613Z,6.68
2023-12-30T09:14:20.873Z,9.60
2023-12-30T09:16:48.384Z,10.70
2023-12-30T09:19:15.991Z,10.27
2023-12-30T09:21:43.174Z,9.77
2023-12-30T09:24:10.412Z,9.43
2023-12-30T09:26:37.610Z,8.77
2023-12-30T09:29:07.238Z,11.40
2023-12-30T09:31:34.623Z,13.82
2023-12-30T09:34:02.124Z,25.48
2023-12-30T09:36:29.911Z,10.25
2023-12-30T09:38:57.043Z,10.80
2023-12-30T09:41:25.962Z,9.35
2023-12-30T09:43:55.672Z,10.27
2023-12-30T09:46:24.458Z,6.63
2023-12-30T09:48:54.074Z,11.85
2023-12-30T09:51:22.904Z,9.75
2023-12-30T09:53:50.032Z,8.70
2023-12-30T09:56:19.314Z,13.45
2023-12-30T09:58:47.759Z,17.50
2023-12-30T10:01:15.258Z,7.78
2023-12-30T10:03:42.794Z,10.90
2023-12-30T10:06:13.548Z,6.00
2023-12-30T10:08:41.530Z,8.18
2023-12-30T10:11:09.810Z,15.73
2023-12-30T10:13:38.466Z,4.82
2023-12-30T10:16:07.255Z,7.55
2023-12-30T10:18:35.017Z,7.60
2023-12-30T10:21:05.056Z,12.15
2023-12-30T10:23:34.840Z,8.95
2023-12-30T10:26:04.053Z,6.07
2023-12-30T10:28:31.490Z,6.95
2023-12-30T10:31:06.414Z,11.98
2023-12-30T10:33:35.086Z,13.63
2023-12-30T10:36:02.776Z,11.25
2023-12-30T10:38:29.932Z,9.05
2023-12-30T10:40:57.333Z,6.25
2023-12-30T10:43:25.707Z,6.97
2023-12-30T10:46:00.365Z,11.18
2023-12-30T10:48:32.704Z,4.22
2023-12-30T10:51:00.943Z,13.38
2023-12-30T10:53:45.443Z,8.82
2023-12-30T10:56:21.274Z,8.20
2023-12-30T10:58:52.946Z,11.20
2023-12-30T11:01:21.829Z,7.90
2023-12-30T11:03:48.955Z,7.63
2023-12-30T11:06:30.136Z,13.00
2023-12-30T11:09:02.025Z,11.60
2023-12-30T11:11:29.744Z,10.95
2023-12-30T11:13:59.451Z,19.00
2023-12-30T11:16:27.195Z,16.95
2023-12-30T11:18:57.413Z,17.92
2023-12-30T11:21:36.966Z,14.75
2023-12-30T11:24:08.879Z,18.05
2023-12-30T11:26:38.966Z,14.70
2023-12-30T11:29:12.158Z,13.82
2023-12-30T11:31:42.457Z,9.38
2023-12-30T11:34:11.807Z,12.00
2023-12-30T11:36:40.582Z,14.43
2023-12-30T11:39:11.861Z,5.22
2023-12-30T11:41:39.060Z,15.25
2023-12-30T11:44:07.211Z,14.63
2023-12-30T11:46:35.203Z,27.40
2023-12-30T11:49:02.701Z,10.55
2023-12-30T11:51:31.134Z,10.95
2023-12-30T11:54:01.786Z,15.75
2023-12-30T11:56:30.648Z,13.05
2023-12-30T11:58:58.863Z,16.50
2023-12-30T12:01:26.175Z,15.43
2023-12-30T12:03:53.982Z,14.82
2023-12-30T12:06:21.402Z,11.82
2023-12-30T12:08:48.611Z,16.52
2023-12-30T12:11:15.828Z,13.52
2023-12-30T12:13:43.139Z,11.50
2023-12-30T12:16:11.207Z,14.52
2023-12-30T12:18:38.556Z,18.27
2023-12-30T12:21:12.884Z,10.82
2023-12-30T12:23:42.231Z,12.88
2023-12-30T12:26:09.571Z,21.90
2023-12-30T12:28:36.790Z,19.85
2023-12-30T12:31:07.267Z,14.77
2023-12-30T12:33:36.674Z,16.10
2023-12-30T12:36:06.292Z,20.10
2023-12-30T12:38:33.552Z,17.00
2023-12-30T12:41:00.660Z,17.77
2023-12-30T12:43:28.024Z,16.20
2023-12-30T12:45:55.204Z,17.45
2023-12-30T12:48:22.459Z,14.75
2023-12-30T12:50:49.692Z,22.60
2023-12-30T12:53:18.093Z,23.13
2023-12-30T12:55:45.289Z,20.33
2023-12-30T12:58:12.414Z,20.38
2023-12-30T13:00:39.715Z,19.40
2023-12-30T13:03:07.686Z,16.52
2023-12-30T13:05:35.262Z,19.98
2023-12-30T13:08:02.644Z,24.52
2023-12-30T13:10:32.913Z,22.02
2023-12-30T13:13:01.123Z,21.27
2023-12-30T13:15:29.105Z,16.35
2023-12-30T13:17:56.325Z,24.52
2023-12-30T13:20:23.538Z,13.40
2023-12-30T13:22:56.454Z,21.77
2023-12-30T13:25:23.795Z,15.85
2023-12-30T13:27:52.370Z,20.95
2023-12-30T13:30:23.982Z,14.07
2023-12-30T13:32:58.521Z,18.95
2023-12-30T13:35:38.125Z,17.95
2023-12-30T13:38:16.896Z,34.42
2023-12-30T13:40:44.661Z,14.18
2023-12-30T13:43:12.040Z,21.55
2023-12-30T13:45:48.356Z,27.70
2023-12-30T13:48:21.568Z,60.67
2023-12-30T13:50:56.240Z,20.92
2023-12-30T13:53:25.296Z,32.38
2023-12-30T13:55:59.369Z,33.72
2023-12-30T13:58:26.662Z,33.60
2023-12-30T14:00:56.477Z,23.88
2023-12-30T14:03:25.029Z,39.42
2023-12-30T14:05:52.326Z,35.22
2023-12-30T14:08:19.441Z,18.70
2023-12-30T14:10:50.480Z,29.02
2023-12-30T14:13:20.802Z,11.60
2023-12-30T14:15:48.942Z,16.27
2023-12-30T14:18:19.446Z,19.63
2023-12-30T14:20:48.127Z,11.18
2023-12-30T14:23:15.530Z,10.70
2023-12-30T14:25:42.770Z,10.90
2023-12-30T14:28:11.091Z,10.52
2023-12-30T14:30:39.864Z,8.48
2023-12-30T14:33:07.717Z,8.75
2023-12-30T14:35:35.299Z,10.30
2023-12-30T14:38:03.790Z,10.10
2023-12-30T14:40:30.896Z,13.40
2023-12-30T14:42:58.153Z,14.88
2023-12-30T14:45:25.288Z,13.50
2023-12-30T14:47:52.404Z,10.35
2023-12-30T14:50:19.621Z,5.32
2023-12-30T14:52:46.867Z,14.88
2023-12-30T14:55:14.166Z,10.20
2023-12-30T14:57:42.047Z,7.38
2023-12-30T15:00:16.910Z,13.55
2023-12-30T15:02:45.623Z,11.70
2023-12-30T15:05:15.636Z,14.07
2023-12-30T15:07:48.118Z,8.57
2023-12-30T15:10:16.507Z,15.77
2023-12-30T15:12:47.701Z,17.65
2023-12-30T15:15:15.700Z,11.98
2023-12-30T15:17:43.267Z,12.77
2023-12-30T15:20:10.739Z,11.15
2023-12-30T15:22:39.159Z,19.67
2023-12-30T15:25:07.074Z,17.38
2023-12-30T15:27:34.339Z,21.30
2023-12-30T15:30:01.974Z,15.55
2023-12-30T15:32:30.409Z,8.82
2023-12-30T15:34:59.336Z,13.73
2023-12-30T15:37:27.091Z,12.20
2023-12-30T15:39:54.341Z,11.38
2023-12-30T15:42:21.726Z,11.35
2023-12-30T15:44:48.746Z,13.18
2023-12-30T15:47:16.566Z,7.05
2023-12-30T15:49:44.045Z,22.33
2023-12-30T15:52:11.704Z,12.25
2023-12-30T15:54:39.661Z,15.82
2023-12-30T15:57:06.877Z,12.93
2023-12-30T15:59:33.987Z,16.30
2023-12-30T16:02:01.481Z,11.70
2023-12-30T16:04:29.259Z,9.55
2023-12-30T16:06:56.800Z,9.77
2023-12-30T16:09:23.925Z,7.88
2023-12-30T16:11:51.193Z,19.48
2023-12-30T16:14:18.327Z,7.65
2023-12-30T16:16:46.664Z,9.80
2023-12-30T16:19:17.318Z,11.45
2023-12-30T16:21:46.470Z,5.65
2023-12-30T16:24:14.674Z,9.82
2023-12-30T16:26:42.484Z,10.55
2023-12-30T16:29:10.013Z,12.48
2023-12-30T16:31:37.818Z,26.00
2023-12-30T16:34:05.369Z,11.05
2023-12-30T16:36:34.275Z,11.07
2023-12-30T16:39:02.596Z,11.63
2023-12-30T16:41:29.774Z,10.15
2023-12-30T16:43:56.882Z,6.78
2023-12-30T16:46:25.254Z,8.77
2023-12-30T16:48:52.885Z,17.35
2023-12-30T16:51:20.167Z,11.10
2023-12-30T16:53:47.862Z,10.35
2023-12-30T16:56:17.013Z,12.30
2023-12-30T16:58:44.230Z,42.15
2023-12-30T17:01:11.470Z,12.25
2023-12-30T17:03:38.596Z,42.83
2023-12-30T17:06:06.315Z,29.65
2023-12-30T17:08:33.464Z,23.30
2023-12-30T17:11:00.684Z,20.13
2023-12-30T17:13:35.140Z,16.25
2023-12-30T17:16:07.658Z,19.45
2023-12-30T17:18:35.234Z,21.55
2023-12-30T17:21:02.968Z,16.85
2023-12-30T17:23:30.105Z,18.33
2023-12-30T17:25:57.188Z,9.18
2023-12-30T17:28:24.382Z,10.00
2023-12-30T17:30:51.589Z,9.18
2023-12-30T17:33:18.811Z,2.70
2023-12-30T17:35:46.093Z,5.70
2023-12-30T17:38:13.556Z,5.47
2023-12-30T17:40:40.940Z,6.05
2023-12-30T17:43:08.065Z,8.63
2023-12-30T17:45:35.185Z,5.35
2023-12-30T17:48:02.722Z,10.55
2023-12-30T17:50:29.881Z,8.15
2023-12-30T17:52:56.956Z,6.80
2023-12-30T17:55:24.064Z,4.72
2023-12-30T17:57:51.228Z,7.20
2023-12-30T18:00:18.587Z,8.32
2023-12-30T18:02:45.701Z,10.55
2023-12-30T18:05:13.154Z,14.57
2023-12-30T18:07:40.552Z,4.85
2023-12-30T18:10:07.989Z,12.48
2023-12-30T18:12:35.171Z,7.82
2023-12-30T18:15:04.793Z,8.30
2023-12-30T18:17:32.858Z,16.25
2023-12-30T18:20:00.342Z,9.90
2023-12-30T18:22:28.177Z,6.15
2023-12-30T18:24:55.354Z,8.25
2023-12-30T18:27:23.672Z,4.85
2023-12-30T18:29:50.807Z,4.60
2023-12-30T18:32:18.193Z,10.10
2023-12-30T18:34:45.344Z,10.90
2023-12-30T18:37:15.148Z,18.95
2023-12-30T18:39:42.488Z,18.55
2023-12-30T18:42:09.541Z,18.83
2023-12-30T18:44:36.620Z,8.68
2023-12-30T18:47:04.148Z,6.68
2023-12-30T18:49:31.272Z,8.93
2023-12-30T18:51:58.704Z,7.22
2023-12-30T18:54:25.883Z,8.95
2023-12-30T18:56:52.999Z,8.65
2023-12-30T18:59:20.140Z,12.93
2023-12-30T19:01:48.198Z,12.73
2023-12-30T19:04:15.550Z,10.85
2023-12-30T19:06:42.806Z,9.50
2023-12-30T19:09:10.262Z,15.35
2023-12-30T19:11:38.207Z,7.07
2023-12-30T19:14:05.311Z,6.45
2023-12-30T19:16:32.474Z,6.95
2023-12-30T19:19:00.061Z,6.28
2023-12-30T19:21:27.351Z,7.03
2023-12-30T19:23:55.043Z,7.85
2023-12-30T19:26:22.109Z,10.30
2023-12-30T19:28:49.258Z,5.18
2023-12-30T19:31:16.773Z,3.10
2023-12-30T19:33:44.256Z,6.25
2023-12-30T19:36:11.881Z,6.13
2023-12-30T19:38:39.716Z,9.07
2023-12-30T19:41:07.170Z,5.70
2023-12-30T19:43:35.596Z,5.38
2023-12-30T19:46:07.048Z,4.55
2023-12-30T19:48:35.801Z,3.08
2023-12-30T19:51:05.665Z,9.15
2023-12-30T19:53:33.721Z,4.45
2023-12-30T19:56:02.866Z,4.50
2023-12-30T19:58:32.047Z,6.13
2023-12-30T20:00:59.958Z,9.50
2023-12-30T20:03:27.285Z,7.65
2023-12-30T20:05:54.830Z,9.80
2023-12-30T20:08:22.639Z,10.50
2023-12-30T20:10:49.912Z,11.25
2023-12-30T20:13:17.211Z,11.77
2023-12-30T20:15:44.480Z,9.77
2023-12-30T20:18:11.702Z,7.35
2023-12-30T20:20:38.931Z,7.43
2023-12-30T20:23:06.972Z,9.02
2023-12-30T20:25:34.359Z,5.35
2023-12-30T20:28:01.832Z,6.05
2023-12-30T20:30:29.169Z,9.27
2023-12-30T20:32:56.303Z,5.60
2023-12-30T20:35:23.456Z,14.18
2023-12-30T20:37:50.536Z,6.50
2023-12-30T20:40:19.258Z,7.10
2023-12-30T20:42:46.870Z,4.75
2023-12-30T20:45:18.159Z,5.20
2023-12-30T20:47:45.369Z,3.72
2023-12-30T20:50:12.625Z,6.20
2023-12-30T20:52:39.912Z,6.10
2023-12-30T20:55:07.691Z,4.32
2023-12-30T20:57:35.276Z,6.78
2023-12-30T21:00:02.732Z,4.70
2023-12-30T21:02:29.923Z,6.00
2023-12-30T21:04:58.217Z,5.13
2023-12-30T21:07:25.620Z,4.32
2023-12-30T21:09:52.994Z,4.28
2023-12-30T21:12:20.243Z,2.55
2023-12-30T21:14:48.005Z,4.97
2023-12-30T21:17:15.192Z,3.53
2023-12-30T21:19:42.409Z,4.05
2023-12-30T21:22:09.748Z,4.85
2023-12-30T21:24:40.189Z,3.70
2023-12-30T21:27:07.612Z,2.33
2023-12-30T21:29:38.462Z,6.20
2023-12-30T21:32:07.546Z,3.97
2023-12-30T21:34:34.722Z,4.78
2023-12-30T21:37:02.016Z,3.47
2023-12-30T21:39:29.556Z,4.55
2023-12-30T21:41:56.660Z,3.75
2023-12-30T21:44:23.846Z,4.07
2023-12-30T21:46:50.956Z,5.22
2023-12-30T21:49:19.756Z,3.92
2023-12-30T21:51:47.177Z,3.20
2023-12-30T21:54:14.949Z,3.97
2023-12-30T21:56:43.238Z,3.53
2023-12-30T21:59:10.597Z,2.15
2023-12-30T22:01:37.836Z,3.75
2023-12-30T22:04:06.364Z,3.65
2023-12-30T22:06:33.942Z,2.35
2023-12-30T22:09:01.217Z,6.88
2023-12-30T22:11:28.812Z,4.13
2023-12-30T22:13:56.781Z,3.88
2023-12-30T22:16:24.205Z,2.95
2023-12-30T22:18:51.612Z,2.92
2023-12-30T22:21:19.323Z,3.15
2023-12-30T22:23:48.141Z,3.45
2023-12-30T22:26:19.119Z,2.53
2023-12-30T22:28:46.399Z,4.00
2023-12-30T22:31:14.111Z,2.95
2023-12-30T22:33:41.580Z,3.83
2023-12-30T22:36:09.117Z,3.97
2023-12-30T22:38:36.701Z,3.05
2023-12-30T22:41:04.615Z,2.38
2023-12-30T22:43:31.891Z,3.45
2023-12-30T22:45:59.483Z,1.55
2023-12-30T22:48:26.658Z,3.35
2023-12-30T22:50:53.827Z,2.83
2023-12-30T22:53:20.995Z,1.73
2023-12-30T22:55:49.605Z,4.82
2023-12-30T22:58:17.031Z,1.65
2023-12-30T23:00:44.365Z,1.83
2023-12-30T23:03:11.493Z,2.45
2023-12-30T23:05:38.932Z,1.80
2023-12-30T23:08:06.767Z,1.83
2023-12-30T23:10:33.965Z,7.38
2023-12-30T23:13:01.531Z,3.92
2023-12-30T23:15:29.745Z,7.05
2023-12-30T23:17:56.965Z,2.75
2023-12-30T23:20:24.182Z,3.45
2023-12-30T23:22:52.568Z,2.53
2023-12-30T23:25:19.812Z,2.95
2023-12-30T23:27:50.127Z,1.60
2023-12-30T23:30:17.330Z,4.22
2023-12-30T23:32:44.535Z,1.70
2023-12-30T23:35:11.884Z,1.63
2023-12-30T23:37:39.076Z,1.88
2023-12-30T23:40:08.885Z,2.70
2023-12-30T23:42:36.674Z,3.75
2023-12-30T23:45:05.086Z,2.10
2023-12-30T23:47:32.685Z,3.75
2023-12-30T23:49:59.883Z,3.42
2023-12-30T23:52:27.370Z,3.42
2023-12-30T23:54:55.373Z,3.60
2023-12-30T23:57:22.472Z,2.22
2023-12-30T23:59:49.608Z,3.28
